x

Canaveral 20 Nm East Of Cape Canaveral, Fl (41009) Wave Buoy

11:50pm - Sat 27th Aug 2016 All times are EDT. -4 hours from GMT.

  • Sig Wave height 4.3ft
  • Swell Direction
  • Peak Period 9s
  • Average Period 6s
  • Wind
    7mph, 9mph gusts
  • Sea Temp 83°f
  • Air Temp 83°f
  • Sea Pressure 1015.4mb
  • Canaveral 20 Nm East Of Cape Canaveral, Fl
  • Canaveral 20 Nm East Of Cape Canaveral, Fl

More Historic Weather Station data

Upgrade to MSW Pro to gain access to the past 30 days of data for over 8000 Wavebouys and Weather Stations around the globe.

Join Pro

Comparision Forecast

View Surf forecast
   
Sat 08/27 11:50pm 4.5ft 9s 6s 7 9 mph 1015.4mb 83f 83f
11:20pm  -   -   -  7 9 mph 1015.5mb 83f 82f
10:50pm 4.5ft 9s 6s 7
mph
1015.5mb 83f 82f
10:20pm  -   -   -   -  2 mph 1015.3mb 82f 82f
9:50pm 4.5ft 9s 6s 2 4 mph 1015.3mb 82f 82f
9:20pm  -   -   -  2 4 mph 1015.1mb 82f 83f
8:50pm 4.5ft 9s 6s 4
mph
1015mb 82f 83f
8:20pm  -   -   -  7 9 mph 1014.6mb 82f 83f
7:50pm 4ft 10s 6s 9 11 mph 1014.3mb 82f 83f
7:20pm  -   -   -  9 13 mph 1014mb 82f 83f
6:50pm 4ft 9s 6s 9 11 mph 1013.9mb 82f 83f
6:20pm  -   -   -  11 13 mph 1014mb 82f 83f
5:50pm 4ft 10s 6s 9 11 mph 1013.9mb 82f 84f
5:20pm  -   -   -  7
mph
1013.8mb 82f 83f
4:50pm 3.5ft 9s 6s 9
mph
1013.8mb 82f 83f
4:20pm  -   -   -  11
mph
1014mb 82f 83f
3:50pm 3.5ft 10s 6s 9 11 mph 1014.4mb 82f 82f
3:20pm  -   -   -  9 11 mph 1014.4mb 82f 83f
2:50pm 4ft 10s 6s 11 16 mph 1014.8mb 83f 83f
2:20pm  -   -   -  9
mph
1015mb 83f 83f
1:50pm 3.5ft 8s 6s 9 11 mph 1015.5mb 83f 83f
1:20pm  -   -   -  11
mph
1015.6mb 83f 83f
12:50pm 3.5ft 10s 5s 9 11 mph 1015.6mb 83f 83f
12:20pm  -   -   -  9 11 mph 1015.5mb 82f 83f
11:50am 3.5ft 9s 6s 9 11 mph 1015.8mb 82f 83f
10:50am 3.5ft 10s 6s 11 13 mph 1015.4mb 82f 82f
10:20am  -   -   -  11
mph
1015.5mb 82f 82f
9:50am 4ft 10s 6s 9 11 mph 1015.6mb 82f 82f
9:20am  -   -   -  11
mph
1015.6mb 82f 82f
8:50am 4.5ft 10s 6s 11 13 mph 1015.2mb 81f 83f
8:20am  -   -   -  11
mph
1015.1mb 81f 82f
7:50am 4.5ft 10s 6s 11 13 mph 1014.7mb 81f 82f
7:20am  -   -   -  9 11 mph 1014.8mb 81f 82f
6:50am 4ft 10s 6s 11 13 mph 1014.4mb 81f 82f
6:20am  -   -   -  9 11 mph 1014.6mb 81f 82f
5:50am 4ft 11s 6s 7 9 mph 1014.2mb 81f 81f
5:20am  -   -   -  7 9 mph 1013.9mb 81f 81f
4:50am 4.5ft 6s 6s 7 9 mph 1013.6mb 81f 81f
4:20am  -   -   -  9 11 mph 1013.7mb 81f 82f
3:50am 4.5ft 11s 6s 9 11 mph 1013.7mb 81f 82f
3:20am  -   -   -  7 9 mph 1014.1mb 81f 81f
2:50am 4.5ft 8s 6s 7 9 mph 1014.4mb 81f 82f
2:20am  -   -   -  7 9 mph 1014.6mb 81f 82f
1:50am 5ft 7s 6s 11 13 mph 1015mb 81f 82f
1:20am  -   -   -  11 13 mph 1015.5mb 81f 82f
12:50am 4.5ft 8s 6s 11 13 mph 1015.8mb 81f 82f
12:20am  -   -   -  13
mph
1015.9mb 81f 82f
Fri 08/26 11:50pm 5ft 7s 6s 11 13 mph 1016.1mb 81f 82f
11:20pm  -   -   -  9 11 mph 1016.4mb 80f 82f
10:50pm 5ft 7s 6s 11
mph
1016.4mb 80f 82f
10:20pm  -   -   -  9 11 mph 1016.1mb 80f 82f
9:50pm 5ft 8s 5s 11 13 mph 1015.7mb 80f 82f
9:20pm  -   -   -  13 16 mph 1015.5mb 80f 83f
8:50pm 5.5ft 7s 5s 13 18 mph 1015.3mb 80f 83f
8:20pm  -   -   -  16 18 mph 1014.9mb 81f 83f
7:50pm 5ft 8s 5s 16 18 mph 1014.8mb 81f 83f
7:20pm  -   -   -  18 22 mph 1014.3mb 81f 83f
6:50pm 5.5ft 8s 5s 18 22 mph 1014mb 81f 83f
6:20pm  -   -   -  18 22 mph 1014.1mb 81f 83f
5:50pm 5.5ft 7s 5s 18 22 mph 1014.1mb 81f 83f
5:20pm  -   -   -  16 20 mph 1014.4mb 81f 83f
4:50pm 5.5ft 7s 5s 18 20 mph 1014.2mb 81f 83f
4:20pm  -   -   -  18 20 mph 1014.4mb 81f 83f
3:50pm 5.5ft 7s 5s 18 20 mph 1014.5mb 82f 83f
3:20pm  -   -   -  18 22 mph 1014.5mb 82f 83f
2:50pm 5ft 8s 5s 18 22 mph 1014.9mb 82f 82f
2:20pm  -   -   -  20 25 mph 1015.1mb 82f 82f
1:50pm 4.5ft 8s 5s 18 22 mph 1015.4mb 81f 82f
1:20pm  -   -   -  20 22 mph 1015.5mb 81f 81f
12:50pm 5ft 7s 6s 13 20 mph 1015.7mb 81f 82f
12:20pm  -   -   -  11 16 mph 1016mb 81f 81f
11:50am 5.5ft 8s 6s 16 20 mph 1016.2mb 82f 81f
11:20am  -   -   -  16 20 mph 1016.1mb 82f 80f
10:50am 5ft 8s 6s 9 11 mph 1016.8mb 82f 81f
10:20am  -   -   -  9 11 mph 1016.5mb 82f 81f
9:50am  -   -   -  13 18 mph - 82f 80f
8:50am 6ft 8s 6s 16 22 mph 1016.5mb 82f 78f
8:20am  -   -   -  16 20 mph 1016.8mb 82f 81f
7:50am 6ft 8s 6s 16 20 mph 1016.4mb 81f 81f
7:20am  -   -   -  16 18 mph 1015.9mb 81f 81f
6:50am 5.5ft 8s 6s 18 22 mph 1015.6mb 81f 81f
6:20am  -   -   -  13 16 mph 1015.5mb 82f 82f
5:50am 5ft 7s 6s 16 18 mph 1015.2mb 82f 82f
5:20am  -   -   -  11 13 mph 1015mb 82f 82f
4:50am 5ft 7s 6s 9 11 mph 1014.8mb 82f 82f
4:20am  -   -   -  9 11 mph 1014.7mb 82f 82f
3:50am 5ft 7s 6s 9 11 mph 1015mb 82f 82f
3:20am  -   -   -  11 13 mph 1014.9mb 82f 82f
2:50am 5ft 7s 5s 9 11 mph 1014.9mb 82f 82f
2:20am  -   -   -  11 13 mph 1015.2mb 82f 82f
1:50am 5ft 7s 5s 11 13 mph 1015.6mb 82f 82f
1:20am  -   -   -  11 13 mph 1015.7mb 82f 82f
12:50am 4.5ft 9s 5s 11 16 mph 1016.1mb 82f 83f
12:20am  -   -   -  16 20 mph 1016mb 82f 83f
Thu 08/25 11:50pm 4.5ft 8s 5s 16 18 mph 1015.9mb 82f 83f
11:20pm  -   -   -  13 18 mph 1015.8mb 82f 83f
10:50pm 4ft 6s 6s 13 16 mph 1016mb 82f 83f
10:20pm  -   -   -  11
mph
1016.1mb 82f 83f
9:50pm 4ft 9s 6s 11 13 mph 1016.1mb 82f 83f
9:20pm  -   -   -  11 13 mph 1016.1mb 83f 83f
8:50pm 4ft 9s 5s 11
mph
1015.9mb 83f 83f
8:20pm  -   -   -  11 13 mph 1015.5mb 83f 83f
7:50pm 4.5ft 10s 6s 11 13 mph 1015.8mb 83f 83f
7:20pm  -   -   -  11 13 mph 1016mb 83f 83f
6:50pm 4ft 9s 5s 11 13 mph 1016mb 83f 83f
6:20pm  -   -   -  11 13 mph 1015.9mb 83f 83f
5:50pm 4ft 7s 6s 11 13 mph 1015.8mb 83f 83f
5:20pm  -   -   -  13 16 mph 1015.7mb 83f 83f
4:50pm 4.5ft 9s 6s 13 16 mph 1015.7mb 83f 83f
4:20pm  -   -   -  13 16 mph 1015.9mb 83f 83f
3:50pm 4ft 7s 5s 13 16 mph 1016.2mb 82f 83f
3:20pm  -   -   -  13 16 mph 1016.6mb 82f 83f
2:50pm 4.5ft 10s 5s 13 16 mph 1017.1mb 82f 83f
2:20pm  -   -   -  11 13 mph 1017.2mb 82f 83f
1:50pm 4ft 10s 5s 11 13 mph 1017.5mb 82f 83f
1:20pm  -   -   -  13 18 mph 1017.4mb 82f 83f
12:50pm 4.5ft 7s 6s 13 16 mph 1017.7mb 82f 83f
12:20pm  -   -   -  13 16 mph 1017.8mb 82f 82f
11:50am 4.5ft 7s 6s 11 13 mph 1018mb 82f 82f
11:20am  -   -   -  11 13 mph 1018.1mb 82f 83f
10:20am  -   -   -  11 13 mph 1018.1mb 81f 82f
9:50am 4.5ft 7s 5s 11 13 mph 1017.8mb 81f 82f
9:20am  -   -   -  11
mph
1017.7mb 81f 81f
8:50am 4.5ft 7s 5s 18 20 mph 1017.5mb 81f 81f
8:20am  -   -   -  13 18 mph 1017.5mb 81f 82f
7:50am 5ft 7s 5s 9 13 mph 1017.6mb 81f 82f
7:20am  -   -   -  9 11 mph 1017mb 81f 82f
6:50am 5ft 7s 6s 13
mph
1016.6mb 81f 82f
6:20am  -   -   -  11 13 mph 1016.4mb 81f 82f
5:50am 4.5ft 7s 5s 13 16 mph 1016.2mb 81f 82f
5:20am  -   -   -  13 16 mph 1016.1mb 81f 82f
4:50am 5ft 7s 5s 13 16 mph 1016.1mb 81f 82f
4:20am  -   -   -  13 16 mph 1016.3mb 81f 83f
3:50am 4.5ft 7s 5s 16 18 mph 1016.3mb 81f 83f
3:20am  -   -   -  13 16 mph 1016.5mb 81f 82f
2:50am 4.5ft 7s 5s 16 18 mph 1016.8mb 81f 82f
2:20am  -   -   -  16 18 mph 1017mb 81f 83f
1:50am 4.5ft 7s 5s 13 16 mph 1017.6mb 81f 82f
1:20am  -   -   -  13 16 mph 1018mb 82f 83f
12:50am 5ft 7s 5s 13 16 mph 1018.3mb 82f 83f
12:20am  -   -   -  13 16 mph 1018.7mb 82f 83f
Wed 08/24 11:50pm 5ft 6s 5s 13 18 mph 1018.9mb 82f 83f
11:20pm  -   -   -  16 18 mph 1018.9mb 82f 83f
10:50pm 4.5ft 6s 5s 13 18 mph 1018.9mb 82f 83f
10:20pm  -   -   -  16 18 mph 1018.9mb 82f 83f
9:50pm 4ft 6s 5s 13 16 mph 1019mb 82f 83f
9:20pm  -   -   -  16 18 mph 1018.7mb 82f 83f
8:50pm 4ft 7s 5s 13 16 mph 1018.5mb 82f 83f
8:20pm  -   -   -  13 16 mph 1018.3mb 82f 83f
7:50pm 3.5ft 6s 5s 16 18 mph 1017.9mb 82f 83f
7:20pm  -   -   -  13 16 mph 1018.1mb 82f 83f
6:50pm 4ft 7s 5s 11 13 mph 1018.2mb 82f 83f
6:20pm  -   -   -  9 11 mph 1018.4mb 82f 83f
5:50pm 3.5ft 7s 5s 11 13 mph 1018.3mb 82f 83f
5:20pm  -   -   -  11 13 mph 1018.6mb 82f 83f
4:50pm 4ft 7s 5s 13 16 mph 1018.4mb 82f 83f
4:20pm  -   -   -  13 16 mph 1018.5mb 82f 83f
3:50pm 3.5ft 7s 5s 13 18 mph 1018.7mb 82f 83f
3:20pm  -   -   -  13 16 mph 1019mb 82f 83f
2:50pm 4ft 7s 5s 13 18 mph 1019.3mb 82f 83f
2:20pm  -   -   -  13 16 mph 1019.5mb 82f 83f
1:50pm 4ft 7s 5s 9
mph
1019.7mb 82f 81f
1:20pm  -   -   -  11
mph
1019.9mb 82f 81f
12:50pm 4ft 7s  -  11 13 mph 1020.1mb 82f 80f
12:20pm  -   -   -  13 16 mph 1020.2mb 82f 82f
11:50am 4ft 8s 5s 13 16 mph 1020.3mb 82f 82f
10:50am 3.5ft 7s 5s 13 18 mph 1020.4mb 82f 82f
10:20am  -   -   -  18 25 mph 1020.1mb 82f 82f
9:50am 3.5ft 7s 5s 13 18 mph 1020mb 82f 82f
9:20am  -   -   -  16 18 mph 1019.8mb 82f 81f
8:50am 3.5ft 6s 4s 18 22 mph 1019.8mb 82f 80f
8:20am  -   -   -  18 22 mph 1019.7mb 82f 82f
7:50am 2.5ft 4s 4s 13 18 mph 1019.7mb 82f 83f
7:20am  -   -   -  13 20 mph 1019.3mb 82f 83f
6:50am 2.5ft 4s 4s 13 16 mph 1019.3mb 82f 83f
6:20am  -   -   -  11 18 mph 1019.3mb 82f 83f
5:50am 2.5ft 3s 4s 7 9 mph 1019.2mb 82f 83f
5:20am  -   -   -  16 18 mph 1018.8mb 82f 82f